createdAt,value
2023-05-23T00:01:21.351Z,97137.69
2023-05-23T00:03:49.389Z,97126.81
2023-05-23T00:06:21.224Z,97117.53
2023-05-23T00:08:48.355Z,97139.09
2023-05-23T00:11:15.197Z,97144.38
2023-05-23T00:13:42.073Z,97135.97
2023-05-23T00:16:12.563Z,97148.88
2023-05-23T00:18:42.999Z,97096.63
2023-05-23T00:21:10.079Z,97102.69
2023-05-23T00:23:36.585Z,97087.88
2023-05-23T00:26:03.871Z,97089.06
2023-05-23T00:28:30.472Z,97075.00
2023-05-23T00:30:56.990Z,97066.25
2023-05-23T00:33:23.811Z,97100.34
2023-05-23T00:35:50.470Z,97093.81
2023-05-23T00:38:17.718Z,97059.63
2023-05-23T00:40:44.460Z,97035.22
2023-05-23T00:43:10.992Z,97031.66
2023-05-23T00:45:37.517Z,97027.59
2023-05-23T00:48:05.033Z,96998.56
2023-05-23T00:50:33.666Z,97005.72
2023-05-23T00:53:01.728Z,97001.25
2023-05-23T00:55:29.062Z,96954.03
2023-05-23T00:57:57.221Z,96957.56
2023-05-23T01:00:25.616Z,96915.31
2023-05-23T01:02:53.532Z,96918.22
2023-05-23T01:05:22.700Z,96934.09
2023-05-23T01:07:51.171Z,96925.00
2023-05-23T01:10:21.324Z,96914.34
2023-05-23T01:12:58.374Z,96926.75
2023-05-23T01:15:55.819Z,96923.63
2023-05-23T01:18:35.209Z,96898.66
2023-05-23T01:21:09.852Z,96871.47
2023-05-23T01:23:55.767Z,96870.91
2023-05-23T01:26:32.425Z,96841.81
2023-05-23T01:29:10.161Z,96820.81
2023-05-23T01:31:44.744Z,96845.66
2023-05-23T01:34:12.808Z,96852.81
2023-05-23T01:36:43.690Z,96879.28
2023-05-23T01:39:10.762Z,96895.50
2023-05-23T01:41:37.596Z,96907.53
2023-05-23T01:44:05.379Z,96859.44
2023-05-23T01:46:34.274Z,96907.66
2023-05-23T01:49:03.688Z,96911.22
2023-05-23T01:51:31.652Z,96898.50
2023-05-23T01:53:58.609Z,96894.28
2023-05-23T01:56:25.328Z,96878.41
2023-05-23T01:58:52.035Z,96851.09
2023-05-23T02:01:18.833Z,96819.75
2023-05-23T02:03:45.724Z,96833.66
2023-05-23T02:06:12.547Z,96814.59
2023-05-23T02:08:39.119Z,96813.31
2023-05-23T02:11:05.881Z,96758.94
2023-05-23T02:13:32.340Z,96787.63
2023-05-23T02:15:59.047Z,96733.59
2023-05-23T02:18:26.430Z,96742.63
2023-05-23T02:20:52.930Z,96765.69
2023-05-23T02:23:19.363Z,96762.88
2023-05-23T02:25:45.900Z,96751.56
2023-05-23T02:28:12.995Z,96738.91
2023-05-23T02:30:40.137Z,96764.97
2023-05-23T02:33:08.170Z,96756.44
2023-05-23T02:35:34.820Z,96750.88
2023-05-23T02:38:01.396Z,96748.34
2023-05-23T02:40:27.850Z,96751.34
2023-05-23T02:42:57.217Z,96807.91
2023-05-23T02:45:24.742Z,96821.81
2023-05-23T02:47:51.399Z,96834.00
2023-05-23T02:50:18.071Z,96856.28
2023-05-23T02:52:45.065Z,96866.50
2023-05-23T02:55:11.669Z,96876.69
2023-05-23T02:57:38.188Z,96870.09
2023-05-23T03:00:05.114Z,96902.47
2023-05-23T03:02:32.035Z,96866.19
2023-05-23T03:04:58.659Z,96910.88
2023-05-23T03:07:28.706Z,96914.22
2023-05-23T03:09:56.485Z,96940.09
2023-05-23T03:12:25.459Z,96950.31
2023-05-23T03:14:52.133Z,96970.63
2023-05-23T03:17:19.063Z,96945.59
2023-05-23T03:19:45.787Z,97002.03
2023-05-23T03:22:12.449Z,97026.63
2023-05-23T03:24:39.047Z,97061.06
2023-05-23T03:27:05.860Z,97052.38
2023-05-23T03:29:33.010Z,97087.75
2023-05-23T03:31:59.720Z,97093.91
2023-05-23T03:34:26.898Z,97065.78
2023-05-23T03:36:53.731Z,97106.13
2023-05-23T03:39:20.552Z,97081.34
2023-05-23T03:41:47.557Z,97130.44
2023-05-23T03:44:14.912Z,97138.00
2023-05-23T03:46:41.970Z,97121.31
2023-05-23T03:49:08.794Z,97124.66
2023-05-23T03:51:36.028Z,97133.75
2023-05-23T03:54:02.787Z,97092.53
2023-05-23T03:56:29.423Z,97140.34
2023-05-23T03:58:56.120Z,97090.75
2023-05-23T04:01:22.929Z,97143.63
2023-05-23T04:03:50.054Z,97142.03
2023-05-23T04:06:17.493Z,97145.03
2023-05-23T04:08:44.273Z,97172.66
2023-05-23T04:11:10.989Z,97165.69
2023-05-23T04:13:38.354Z,97225.44
2023-05-23T04:16:06.048Z,97253.28
2023-05-23T04:18:39.509Z,97337.41
2023-05-23T04:21:06.494Z,97375.16
2023-05-23T04:23:33.064Z,97393.44
2023-05-23T04:26:00.454Z,97459.22
2023-05-23T04:28:27.997Z,97531.03
2023-05-23T04:30:54.692Z,97521.06
2023-05-23T04:33:21.676Z,97582.34
2023-05-23T04:35:49.502Z,97565.81
2023-05-23T04:38:16.042Z,97627.75
2023-05-23T04:40:42.963Z,97651.34
2023-05-23T04:43:10.243Z,97677.78
2023-05-23T04:45:38.224Z,97680.06
2023-05-23T04:48:04.794Z,97736.09
2023-05-23T04:50:33.372Z,97766.47
2023-05-23T04:52:59.956Z,97770.00
2023-05-23T04:55:26.725Z,97775.94
2023-05-23T04:57:53.596Z,97842.88
2023-05-23T05:00:20.429Z,97822.53
2023-05-23T05:02:47.021Z,97855.19
2023-05-23T05:05:13.582Z,97866.72
2023-05-23T05:07:40.512Z,97878.38
2023-05-23T05:10:07.932Z,97862.56
2023-05-23T05:12:34.610Z,97886.81
2023-05-23T05:15:01.275Z,97906.75
2023-05-23T05:17:28.110Z,97905.31
2023-05-23T05:19:54.660Z,97902.63
2023-05-23T05:22:21.616Z,97890.50
2023-05-23T05:24:48.288Z,97892.94
2023-05-23T05:27:14.846Z,97908.13
2023-05-23T05:29:42.315Z,97885.53
2023-05-23T05:32:09.173Z,97883.47
2023-05-23T05:34:35.816Z,97893.31
2023-05-23T05:37:02.708Z,97900.53
2023-05-23T05:39:29.300Z,97914.31
2023-05-23T05:41:56.268Z,97902.38
2023-05-23T05:44:22.688Z,97923.31
2023-05-23T05:46:49.456Z,97924.78
2023-05-23T05:49:16.484Z,97920.81
2023-05-23T05:51:42.908Z,97901.44
2023-05-23T05:54:09.377Z,97938.38
2023-05-23T05:56:35.913Z,97936.16
2023-05-23T05:59:02.421Z,97914.59
2023-05-23T06:01:29.145Z,97930.59
2023-05-23T06:03:56.350Z,97928.53
2023-05-23T06:06:23.088Z,97944.28
2023-05-23T06:08:49.561Z,97942.88
2023-05-23T06:11:16.037Z,97953.94
2023-05-23T06:13:43.129Z,97966.47
2023-05-23T06:16:09.797Z,97977.84
2023-05-23T06:18:36.289Z,97980.59
2023-05-23T06:21:02.834Z,98002.31
2023-05-23T06:23:29.394Z,97967.03
2023-05-23T06:25:56.413Z,98004.59
2023-05-23T06:28:22.948Z,98005.28
2023-05-23T06:30:49.618Z,97988.16
2023-05-23T06:33:16.470Z,97996.28
2023-05-23T06:35:43.242Z,98015.47
2023-05-23T06:38:09.775Z,97985.34
2023-05-23T06:40:36.373Z,97945.41
2023-05-23T06:43:03.568Z,97804.53
2023-05-23T06:45:30.056Z,97531.97
2023-05-23T06:47:57.006Z,97460.47
2023-05-23T06:50:23.516Z,97531.16
2023-05-23T06:52:50.179Z,97570.38
2023-05-23T06:55:19.360Z,97596.25
2023-05-23T06:57:46.839Z,97619.47
2023-05-23T07:00:14.160Z,97613.44
2023-05-23T07:02:40.841Z,97637.84
2023-05-23T07:05:07.954Z,97678.63
2023-05-23T07:07:34.618Z,97691.31
2023-05-23T07:10:02.022Z,97707.25
2023-05-23T07:12:28.556Z,97708.19
2023-05-23T07:14:55.475Z,97694.91
2023-05-23T07:17:22.659Z,97727.41
2023-05-23T07:19:49.374Z,97702.63
2023-05-23T07:22:15.826Z,97720.38
2023-05-23T07:24:42.364Z,97689.00
2023-05-23T07:27:08.824Z,97728.66
2023-05-23T07:29:35.448Z,97745.94
2023-05-23T07:32:01.918Z,97781.28
2023-05-23T07:34:28.458Z,97789.91
2023-05-23T07:36:54.966Z,97747.16
2023-05-23T07:39:22.647Z,97731.16
2023-05-23T07:41:50.176Z,97805.31
2023-05-23T07:44:18.950Z,97816.19
2023-05-23T07:46:45.646Z,97775.72
2023-05-23T07:49:12.186Z,97773.88
2023-05-23T07:51:38.685Z,97833.44
2023-05-23T07:54:05.559Z,97872.25
2023-05-23T07:56:32.010Z,97845.75
2023-05-23T07:58:58.440Z,97819.03
2023-05-23T08:01:25.610Z,97771.81
2023-05-23T08:03:52.284Z,97830.13
2023-05-23T08:06:18.770Z,97928.50
2023-05-23T08:08:45.225Z,97911.84
2023-05-23T08:11:11.702Z,97917.28
2023-05-23T08:13:38.605Z,97934.47
2023-05-23T08:16:05.311Z,97916.84
2023-05-23T08:18:31.793Z,97920.16
2023-05-23T08:20:58.401Z,97864.03
2023-05-23T08:23:25.481Z,97899.19
2023-05-23T08:25:53.157Z,97852.75
2023-05-23T08:28:19.591Z,97886.84
2023-05-23T08:30:46.865Z,97897.91
2023-05-23T08:33:13.426Z,97963.22
2023-05-23T08:35:41.685Z,97968.56
2023-05-23T08:38:08.913Z,97936.38
2023-05-23T08:40:37.160Z,97930.78
2023-05-23T08:43:03.933Z,97935.31
2023-05-23T08:45:31.164Z,97894.25
2023-05-23T08:48:01.389Z,97855.97
2023-05-23T08:50:30.520Z,97842.41
2023-05-23T08:52:58.692Z,97831.75
2023-05-23T08:55:27.353Z,97804.94
2023-05-23T08:58:00.813Z,97813.09
2023-05-23T09:00:28.339Z,97783.69
2023-05-23T09:02:55.256Z,97806.31
2023-05-23T09:05:22.055Z,97854.78
2023-05-23T09:07:55.090Z,97798.94
2023-05-23T09:10:21.810Z,97843.28
2023-05-23T09:12:49.443Z,97846.56
2023-05-23T09:15:17.133Z,97856.63
2023-05-23T09:17:45.422Z,97827.69
2023-05-23T09:20:15.051Z,97929.13
2023-05-23T09:22:45.731Z,97984.78
2023-05-23T09:25:12.355Z,97956.53
2023-05-23T09:27:39.161Z,97948.13
2023-05-23T09:30:10.641Z,97967.50
2023-05-23T09:32:37.287Z,97963.59
2023-05-23T09:35:06.124Z,97992.81
2023-05-23T09:37:41.340Z,98004.97
2023-05-23T09:40:13.671Z,98017.78
2023-05-23T09:42:48.121Z,98029.28
2023-05-23T09:45:16.355Z,98010.28
2023-05-23T09:47:53.065Z,98039.97
2023-05-23T09:50:20.863Z,98020.47
2023-05-23T09:52:48.089Z,98027.28
2023-05-23T09:55:14.952Z,98041.38
2023-05-23T09:57:43.377Z,98026.78
2023-05-23T10:00:12.407Z,97984.44
2023-05-23T10:03:13.765Z,98030.97
2023-05-23T10:05:52.992Z,98008.00
2023-05-23T10:08:27.451Z,97986.28
2023-05-23T10:10:57.036Z,97961.25
2023-05-23T10:13:28.538Z,97941.44
2023-05-23T10:16:02.806Z,97909.41
2023-05-23T10:18:31.682Z,97930.44
2023-05-23T10:21:07.057Z,97911.94
2023-05-23T10:23:34.117Z,97911.94
2023-05-23T10:26:01.133Z,97908.41
2023-05-23T10:28:27.753Z,97883.75
2023-05-23T10:30:54.725Z,97833.78
2023-05-23T10:33:23.160Z,97865.03
2023-05-23T10:36:42.022Z,97854.75
2023-05-23T10:39:19.129Z,97826.38
2023-05-23T10:42:01.167Z,97825.59
2023-05-23T10:44:31.384Z,97794.81
2023-05-23T10:47:01.628Z,97819.44
2023-05-23T10:49:46.708Z,97790.72
2023-05-23T10:52:16.421Z,97816.97
2023-05-23T10:54:44.550Z,97818.22
2023-05-23T10:57:12.935Z,97828.50
2023-05-23T10:59:40.659Z,97826.47
2023-05-23T11:02:17.821Z,97828.94
2023-05-23T11:04:46.447Z,97829.34
2023-05-23T11:07:31.071Z,97804.47
2023-05-23T11:10:23.686Z,97801.00
2023-05-23T11:12:50.199Z,97734.47
2023-05-23T11:15:16.788Z,97730.34
2023-05-23T11:17:54.690Z,97768.13
2023-05-23T11:20:25.136Z,97791.13
2023-05-23T11:22:59.884Z,97856.03
2023-05-23T11:25:43.176Z,97894.19
2023-05-23T11:28:13.083Z,97897.50
2023-05-23T11:30:40.517Z,97949.00
2023-05-23T11:33:13.893Z,97931.91
2023-05-23T11:35:45.831Z,98007.44
2023-05-23T11:38:14.068Z,98031.56
2023-05-23T11:40:43.089Z,98050.00
2023-05-23T11:43:11.923Z,98023.63
2023-05-23T11:45:39.600Z,98067.44
2023-05-23T11:48:13.695Z,98109.94
2023-05-23T11:50:48.109Z,98135.56
2023-05-23T11:53:21.173Z,98148.34
2023-05-23T11:56:00.327Z,98125.25
2023-05-23T11:58:30.312Z,98133.59
2023-05-23T12:01:05.584Z,98105.47
2023-05-23T12:03:33.062Z,98068.44
2023-05-23T12:06:01.862Z,98091.41
2023-05-23T12:08:28.417Z,98106.56
2023-05-23T12:11:00.389Z,98065.91
2023-05-23T12:13:29.431Z,98132.38
2023-05-23T12:15:58.630Z,98112.53
2023-05-23T12:18:28.888Z,98137.72
2023-05-23T12:20:56.070Z,98184.78
2023-05-23T12:23:24.836Z,98190.88
2023-05-23T12:25:53.569Z,98183.66
2023-05-23T12:28:36.737Z,98224.34
2023-05-23T12:31:16.204Z,98207.28
2023-05-23T12:33:44.690Z,98207.38
2023-05-23T12:36:12.018Z,98159.22
2023-05-23T12:38:40.585Z,98172.97
2023-05-23T12:41:20.401Z,98163.53
2023-05-23T12:43:52.207Z,98153.19
2023-05-23T12:46:26.159Z,98124.50
2023-05-23T12:48:53.854Z,98086.97
2023-05-23T12:51:21.151Z,98099.28
2023-05-23T12:53:48.105Z,98079.19
2023-05-23T12:56:14.556Z,98041.03
2023-05-23T12:58:41.478Z,98046.06
2023-05-23T13:01:08.079Z,97982.28
2023-05-23T13:03:34.674Z,97987.91
2023-05-23T13:06:01.210Z,97936.75
2023-05-23T13:08:27.738Z,97925.75
2023-05-23T13:10:54.560Z,97926.50
2023-05-23T13:13:21.373Z,97974.72
2023-05-23T13:15:50.499Z,97970.41
2023-05-23T13:18:17.834Z,98002.44
2023-05-23T13:20:44.412Z,97989.72
2023-05-23T13:23:12.142Z,97958.06
2023-05-23T13:25:38.884Z,97987.72
2023-05-23T13:28:05.765Z,98012.50
2023-05-23T13:30:32.251Z,98025.50
2023-05-23T13:32:58.953Z,98030.16
2023-05-23T13:35:25.685Z,98022.88
2023-05-23T13:37:52.145Z,97988.28
2023-05-23T13:40:21.399Z,98022.53
2023-05-23T13:42:51.213Z,98034.06
2023-05-23T13:45:18.961Z,98035.75
2023-05-23T13:47:46.679Z,98086.50
2023-05-23T13:50:14.534Z,98064.31
2023-05-23T13:52:44.838Z,98107.59
2023-05-23T13:55:13.320Z,98120.34
2023-05-23T13:57:39.802Z,98109.09
2023-05-23T14:00:09.596Z,98073.53
2023-05-23T14:02:36.646Z,98104.00
2023-05-23T14:05:03.777Z,98089.50
2023-05-23T14:07:31.349Z,98048.66
2023-05-23T14:09:58.309Z,98018.41
2023-05-23T14:12:24.721Z,98038.25
2023-05-23T14:14:51.175Z,98027.28
2023-05-23T14:17:18.725Z,98019.97
2023-05-23T14:19:46.185Z,97984.53
2023-05-23T14:22:12.918Z,98001.47
2023-05-23T14:24:39.548Z,98021.97
2023-05-23T14:27:08.069Z,98060.44
2023-05-23T14:29:36.161Z,98086.38
2023-05-23T14:32:04.140Z,98030.31
2023-05-23T14:34:30.803Z,97992.22
2023-05-23T14:36:57.375Z,97947.34
2023-05-23T14:39:25.638Z,97951.09
2023-05-23T14:41:52.734Z,97925.78
2023-05-23T14:44:20.505Z,97940.41
2023-05-23T14:46:50.296Z,97940.19
2023-05-23T14:49:20.083Z,97951.88
2023-05-23T14:51:50.876Z,97959.22
2023-05-23T14:54:18.586Z,97954.81
2023-05-23T14:56:45.620Z,97891.38
2023-05-23T14:59:12.102Z,97922.34
2023-05-23T15:01:40.496Z,97930.88
2023-05-23T15:04:09.273Z,97962.88
2023-05-23T15:06:37.987Z,97959.59
2023-05-23T15:09:05.258Z,97986.03
2023-05-23T15:11:35.326Z,98008.31
2023-05-23T15:14:01.814Z,97987.03
2023-05-23T15:16:32.528Z,97941.41
2023-05-23T15:18:59.713Z,97868.88
2023-05-23T15:21:26.965Z,97839.31
2023-05-23T15:23:53.683Z,97796.59
2023-05-23T15:26:20.257Z,97761.38
2023-05-23T15:28:47.108Z,97719.56
2023-05-23T15:31:13.647Z,97720.72
2023-05-23T15:33:40.225Z,97705.75
2023-05-23T15:36:07.358Z,97658.31
2023-05-23T15:38:33.998Z,97675.28
2023-05-23T15:41:01.150Z,97660.81
2023-05-23T15:43:28.275Z,97696.56
2023-05-23T15:45:54.896Z,97680.00
2023-05-23T15:48:21.468Z,97696.97
2023-05-23T15:50:47.990Z,97689.91
2023-05-23T15:53:14.600Z,97682.38
2023-05-23T15:55:42.529Z,97664.16
2023-05-23T15:58:10.578Z,97711.31
2023-05-23T16:00:37.175Z,97708.41
2023-05-23T16:03:03.789Z,97707.13
2023-05-23T16:05:31.662Z,97704.25
2023-05-23T16:07:58.173Z,97692.81
2023-05-23T16:10:25.474Z,97703.59
2023-05-23T16:12:52.479Z,97701.97
2023-05-23T16:15:18.976Z,97714.56
2023-05-23T16:17:45.869Z,97735.00
2023-05-23T16:20:12.989Z,97762.13
2023-05-23T16:22:41.103Z,97787.63
2023-05-23T16:25:09.266Z,97793.47
2023-05-23T16:27:35.900Z,97786.19
2023-05-23T16:30:03.261Z,97817.72
2023-05-23T16:32:29.927Z,97857.66
2023-05-23T16:34:56.566Z,97878.28
2023-05-23T16:37:23.451Z,97876.63
2023-05-23T16:39:49.976Z,97874.97
2023-05-23T16:42:17.831Z,97868.91
2023-05-23T16:44:45.895Z,97896.25
2023-05-23T16:47:12.901Z,97914.59
2023-05-23T16:49:39.477Z,97973.66
2023-05-23T16:52:06.416Z,97980.00
2023-05-23T16:54:32.901Z,98002.13
2023-05-23T16:57:01.926Z,97994.97
2023-05-23T16:59:29.893Z,97989.94
2023-05-23T17:01:56.723Z,97956.25
2023-05-23T17:04:24.144Z,98040.00
2023-05-23T17:06:50.795Z,98074.75
2023-05-23T17:09:18.165Z,98008.06
2023-05-23T17:11:46.464Z,98030.38
2023-05-23T17:14:12.986Z,98043.25
2023-05-23T17:16:39.748Z,98008.97
2023-05-23T17:19:06.812Z,98041.72
2023-05-23T17:21:33.604Z,98081.63
2023-05-23T17:24:00.252Z,98077.44
2023-05-23T17:26:27.325Z,98084.41
2023-05-23T17:28:53.854Z,98095.44
2023-05-23T17:31:21.147Z,98111.34
2023-05-23T17:33:47.715Z,98109.72
2023-05-23T17:36:15.093Z,98141.50
2023-05-23T17:38:41.853Z,98152.22
2023-05-23T17:41:08.355Z,98100.56
2023-05-23T17:43:34.859Z,98079.28
2023-05-23T17:46:01.358Z,98123.91
2023-05-23T17:48:38.756Z,98177.19
2023-05-23T17:51:12.786Z,98161.06
2023-05-23T17:53:41.484Z,98177.38
2023-05-23T17:56:11.654Z,98170.50
2023-05-23T17:58:40.303Z,98220.22
2023-05-23T18:01:08.594Z,98234.06
2023-05-23T18:03:35.374Z,98231.19
2023-05-23T18:06:02.625Z,98207.78
2023-05-23T18:08:29.158Z,98184.78
2023-05-23T18:10:56.026Z,98200.50
2023-05-23T18:13:22.610Z,98187.66
2023-05-23T18:15:49.233Z,98208.94
2023-05-23T18:18:16.951Z,98209.66
2023-05-23T18:20:44.108Z,98188.81
2023-05-23T18:23:10.934Z,98175.25
2023-05-23T18:25:38.159Z,98197.34
2023-05-23T18:28:04.748Z,98165.94
2023-05-23T18:30:31.280Z,98203.91
2023-05-23T18:32:59.188Z,98215.19
2023-05-23T18:35:25.947Z,98195.09
2023-05-23T18:37:53.755Z,98140.91
2023-05-23T18:40:21.830Z,98175.09
2023-05-23T18:42:48.558Z,98206.78
2023-05-23T18:45:15.104Z,98154.34
2023-05-23T18:47:42.179Z,98199.34
2023-05-23T18:50:09.241Z,98224.88
2023-05-23T18:52:37.369Z,98197.47
2023-05-23T18:55:04.223Z,98233.16
2023-05-23T18:57:32.310Z,98192.00
2023-05-23T19:00:00.025Z,98147.78
2023-05-23T19:02:27.192Z,98199.59
2023-05-23T19:04:54.031Z,98157.50
2023-05-23T19:07:20.653Z,98182.94
2023-05-23T19:09:47.572Z,98178.53
2023-05-23T19:12:14.028Z,98138.06
2023-05-23T19:14:40.951Z,98176.34
2023-05-23T19:17:07.358Z,98174.22
2023-05-23T19:19:37.595Z,98189.81
2023-05-23T19:22:04.708Z,98201.06
2023-05-23T19:24:32.614Z,98159.28
2023-05-23T19:26:59.671Z,98204.03
2023-05-23T19:29:26.713Z,98219.53
2023-05-23T19:31:53.748Z,98305.50
2023-05-23T19:34:20.326Z,98273.50
2023-05-23T19:36:46.804Z,98293.16
2023-05-23T19:39:13.326Z,98318.38
2023-05-23T19:41:40.787Z,98294.91
2023-05-23T19:44:07.464Z,98288.47
2023-05-23T19:46:34.337Z,98345.69
2023-05-23T19:49:00.998Z,98348.66
2023-05-23T19:51:29.147Z,98313.25
2023-05-23T19:53:57.009Z,98320.53
2023-05-23T19:56:25.812Z,98364.78
2023-05-23T19:58:52.297Z,98333.13
2023-05-23T20:01:18.991Z,98359.69
2023-05-23T20:03:45.606Z,98352.75
2023-05-23T20:06:16.339Z,98365.16
2023-05-23T20:08:43.153Z,98343.28
2023-05-23T20:11:10.499Z,98385.56
2023-05-23T20:13:38.201Z,98401.97
2023-05-23T20:16:04.833Z,98372.97
2023-05-23T20:18:31.634Z,98358.06
2023-05-23T20:20:58.280Z,98395.34
2023-05-23T20:23:24.855Z,98308.50
2023-05-23T20:25:51.846Z,98355.72
2023-05-23T20:28:18.417Z,98343.78
2023-05-23T20:30:44.932Z,98318.28
2023-05-23T20:33:13.904Z,98292.25
2023-05-23T20:35:42.665Z,98324.56
2023-05-23T20:38:09.349Z,98314.28
2023-05-23T20:40:36.048Z,98289.78
2023-05-23T20:43:05.172Z,98374.28
2023-05-23T20:45:32.840Z,98329.38
2023-05-23T20:47:59.683Z,98295.91
2023-05-23T20:50:26.615Z,98290.44
2023-05-23T20:52:54.060Z,98263.59
2023-05-23T20:55:20.680Z,98277.53
2023-05-23T20:57:47.839Z,98297.06
2023-05-23T21:00:14.844Z,98277.16
2023-05-23T21:02:42.476Z,98242.72
2023-05-23T21:05:10.655Z,98209.75
2023-05-23T21:07:37.741Z,98241.03
2023-05-23T21:10:05.033Z,98243.50
2023-05-23T21:12:32.802Z,98214.38
2023-05-23T21:14:59.363Z,98244.53
2023-05-23T21:17:26.268Z,98255.09
2023-05-23T21:19:52.788Z,98217.81
2023-05-23T21:22:19.305Z,98177.44
2023-05-23T21:24:45.938Z,98217.81
2023-05-23T21:27:12.746Z,98201.28
2023-05-23T21:29:39.263Z,98151.44
2023-05-23T21:32:06.106Z,98061.28
2023-05-23T21:34:32.669Z,97974.13
2023-05-23T21:36:59.485Z,97936.63
2023-05-23T21:39:39.538Z,97930.44
2023-05-23T21:42:13.851Z,97914.56
2023-05-23T21:44:40.973Z,97871.41
2023-05-23T21:47:08.113Z,97883.28
2023-05-23T21:49:35.577Z,97901.78
2023-05-23T21:52:02.518Z,97896.16
2023-05-23T21:54:34.721Z,97919.88
2023-05-23T21:57:01.384Z,97949.38
2023-05-23T21:59:27.951Z,97986.47
2023-05-23T22:01:54.808Z,97975.41
2023-05-23T22:04:21.403Z,97986.25
2023-05-23T22:06:48.033Z,98033.13
2023-05-23T22:09:15.546Z,98090.59
2023-05-23T22:11:42.499Z,98092.63
2023-05-23T22:14:09.445Z,98065.00
2023-05-23T22:16:39.526Z,98158.28
2023-05-23T22:19:07.204Z,98234.91
2023-05-23T22:21:34.754Z,98269.38
2023-05-23T22:24:01.294Z,98267.50
2023-05-23T22:26:28.162Z,98316.25
2023-05-23T22:28:55.252Z,98354.81
2023-05-23T22:31:22.159Z,98389.38
2023-05-23T22:33:48.821Z,98440.88
2023-05-23T22:36:16.267Z,98495.25
2023-05-23T22:38:43.062Z,98515.13
2023-05-23T22:41:09.774Z,98507.06
2023-05-23T22:43:37.264Z,98520.66
2023-05-23T22:46:04.210Z,98543.13
2023-05-23T22:48:33.807Z,98535.63
2023-05-23T22:51:02.384Z,98545.22
2023-05-23T22:53:30.109Z,98537.31
2023-05-23T22:55:57.030Z,98535.09
2023-05-23T22:58:23.536Z,98465.97
2023-05-23T23:00:50.268Z,98518.97
2023-05-23T23:03:17.156Z,98503.97
2023-05-23T23:05:44.518Z,98532.03
2023-05-23T23:08:11.054Z,98489.25
2023-05-23T23:10:37.598Z,98536.41
2023-05-23T23:13:04.649Z,98525.00
2023-05-23T23:15:33.956Z,98556.38
2023-05-23T23:18:01.228Z,98530.22
2023-05-23T23:20:28.343Z,98564.13
2023-05-23T23:22:55.222Z,98557.06
2023-05-23T23:25:22.159Z,98512.88
2023-05-23T23:27:48.886Z,98511.53
2023-05-23T23:30:15.646Z,98543.56
2023-05-23T23:32:42.251Z,98505.66
2023-05-23T23:35:09.052Z,98524.44
2023-05-23T23:37:35.751Z,98510.41
2023-05-23T23:40:02.264Z,98517.47
2023-05-23T23:42:28.909Z,98518.03
2023-05-23T23:44:55.503Z,98503.03
2023-05-23T23:47:22.093Z,98508.38
2023-05-23T23:49:48.594Z,98472.91
2023-05-23T23:52:15.931Z,98487.94
2023-05-23T23:54:42.458Z,98468.94
2023-05-23T23:57:13.704Z,98471.19
2023-05-23T23:59:43.686Z,98450.53
